Terminal Aerodrome Forecast
Issued by NWS Paducah, KY

Home | Current Version | Previous Version | Text Only | Print | Product List | Glossary On
Versions: 1 2 3 4 5 6 7 8 9 10 11 12 13 14
000
FTUS43 KPAH 171400 AAA
TAFEVV
TAF AMD
KEVV 171435Z 1715/1812 VRB04KT P6SM BKN018
     FM171800 31004KT P6SM SCT100 BKN250
     FM180400 01003KT P6SM OVC100=

USA.gov is the U.S. government's official web portal to all federal, state and local government web resources and services.